createdAt,value
2024-02-24T00:02:26.289Z,99533.00
2024-02-24T00:07:13.659Z,99526.94
2024-02-24T00:12:04.032Z,99510.16
2024-02-24T00:16:51.182Z,99526.22
2024-02-24T00:21:38.421Z,99481.31
2024-02-24T00:26:25.685Z,99525.44
2024-02-24T00:31:15.947Z,99548.38
2024-02-24T00:36:03.499Z,99519.91
2024-02-24T00:40:50.712Z,99539.34
2024-02-24T00:45:37.995Z,99541.13
2024-02-24T00:50:27.877Z,99532.97
2024-02-24T00:55:15.054Z,99543.28
2024-02-24T01:00:02.205Z,99536.50
2024-02-24T01:04:49.410Z,99547.59
2024-02-24T01:09:39.370Z,99449.47
2024-02-24T01:14:26.720Z,99476.59
2024-02-24T01:19:14.114Z,99448.78
2024-02-24T01:24:01.376Z,99493.06
2024-02-24T01:28:51.554Z,99463.59
2024-02-24T01:33:38.933Z,99557.44
2024-02-24T01:38:26.197Z,99534.94
2024-02-24T01:43:27.321Z,99530.47
2024-02-24T01:48:17.600Z,99554.47
2024-02-24T01:53:05.187Z,99564.63
2024-02-24T01:57:54.909Z,99565.78
2024-02-24T02:02:42.301Z,99529.59
2024-02-24T02:07:32.508Z,99568.25
2024-02-24T02:12:20.111Z,99570.91
2024-02-24T02:17:07.505Z,99515.72
2024-02-24T02:21:57.120Z,99545.53
2024-02-24T02:26:47.188Z,99567.78
2024-02-24T02:31:34.425Z,99584.56
2024-02-24T02:36:21.946Z,99560.22
2024-02-24T02:41:09.190Z,99577.66
2024-02-24T02:45:59.042Z,99567.56
2024-02-24T02:50:46.357Z,99552.97
2024-02-24T02:55:33.583Z,99552.88
2024-02-24T03:00:21.376Z,99573.25
2024-02-24T03:05:11.509Z,99539.28
2024-02-24T03:10:00.268Z,99575.72
2024-02-24T03:14:47.633Z,99581.84
2024-02-24T03:19:35.363Z,99574.34
2024-02-24T03:24:25.326Z,99512.44
2024-02-24T03:29:12.610Z,99542.88
2024-02-24T03:33:59.843Z,99583.88
2024-02-24T03:38:47.282Z,99588.31
2024-02-24T03:43:37.359Z,99580.38
2024-02-24T03:48:24.622Z,99579.81
2024-02-24T03:53:11.897Z,99585.00
2024-02-24T03:57:59.044Z,99583.13
2024-02-24T04:02:49.114Z,99584.06
2024-02-24T04:07:36.493Z,99599.75
2024-02-24T04:12:23.778Z,99504.50
2024-02-24T04:17:11.114Z,99488.91
2024-02-24T04:22:00.899Z,99506.69
2024-02-24T04:26:48.238Z,99563.69
2024-02-24T04:31:35.434Z,99546.69
2024-02-24T04:36:22.591Z,99568.22
2024-02-24T04:41:12.544Z,99601.22
2024-02-24T04:45:59.811Z,99620.97
2024-02-24T04:50:46.959Z,99605.66
2024-02-24T04:55:34.141Z,99559.56
2024-02-24T05:00:24.079Z,99613.81
2024-02-24T05:05:11.372Z,99630.81
2024-02-24T05:09:58.652Z,99615.81
2024-02-24T05:14:48.782Z,99533.75
2024-02-24T05:19:48.055Z,99627.25
2024-02-24T05:24:35.189Z,99643.22
2024-02-24T05:29:22.365Z,99645.19
2024-02-24T05:34:09.684Z,99643.25
2024-02-24T05:38:59.505Z,99664.19
2024-02-24T05:43:46.619Z,99665.25
2024-02-24T05:48:33.840Z,99656.19
2024-02-24T05:53:21.333Z,99665.44
2024-02-24T05:58:11.162Z,99696.44
2024-02-24T06:03:01.333Z,99668.84
2024-02-24T06:07:48.397Z,99685.31
2024-02-24T06:12:35.568Z,99706.53
2024-02-24T06:17:25.576Z,99680.94
2024-02-24T06:22:12.822Z,99672.44
2024-02-24T06:27:00.020Z,99719.22
2024-02-24T06:31:50.889Z,99697.94
2024-02-24T06:36:40.850Z,99637.50
2024-02-24T06:41:28.248Z,99646.75
2024-02-24T06:46:15.595Z,99735.22
2024-02-24T06:51:04.366Z,99669.88
2024-02-24T06:55:54.274Z,99727.63
2024-02-24T07:00:41.506Z,99700.72
2024-02-24T07:05:28.806Z,99754.75
2024-02-24T07:10:16.269Z,99741.25
2024-02-24T07:15:07.360Z,99761.66
2024-02-24T07:19:54.894Z,99760.91
2024-02-24T07:24:42.772Z,99685.47
2024-02-24T07:29:30.032Z,99675.19
2024-02-24T07:34:19.945Z,99760.03
2024-02-24T07:39:07.335Z,99797.50
2024-02-24T07:43:54.465Z,99764.91
2024-02-24T07:48:41.729Z,99823.63
2024-02-24T07:53:31.522Z,99814.81
2024-02-24T07:58:18.664Z,99799.41
2024-02-24T08:03:06.026Z,99822.78
2024-02-24T08:07:53.197Z,99833.16
2024-02-24T08:12:43.134Z,99766.66
2024-02-24T08:17:30.587Z,99793.63
2024-02-24T08:22:17.849Z,99830.09
2024-02-24T08:27:05.721Z,99843.09
2024-02-24T08:31:55.378Z,99859.91
2024-02-24T08:36:42.733Z,99844.00
2024-02-24T08:41:30.400Z,99822.72
2024-02-24T08:46:17.676Z,99775.28
2024-02-24T08:51:07.958Z,99813.59
2024-02-24T08:55:55.237Z,99889.88
2024-02-24T09:00:42.400Z,99868.91
2024-02-24T09:05:29.776Z,99845.28
2024-02-24T09:10:19.776Z,99884.97
2024-02-24T09:15:08.032Z,99875.94
2024-02-24T09:19:55.170Z,99903.72
2024-02-24T09:24:42.242Z,99906.69
2024-02-24T09:29:32.032Z,99907.22
2024-02-24T09:34:19.470Z,99910.41
2024-02-24T09:39:06.701Z,99921.34
2024-02-24T09:43:54.088Z,99871.00
2024-02-24T09:48:47.345Z,99919.19
2024-02-24T09:53:34.574Z,99794.09
2024-02-24T09:58:22.684Z,99936.13
2024-02-24T10:03:10.555Z,99882.44
2024-02-24T10:08:00.664Z,99934.19
2024-02-24T10:12:58.465Z,99935.75
2024-02-24T10:17:45.719Z,99947.13
2024-02-24T10:22:33.136Z,99932.88
2024-02-24T10:27:23.215Z,99971.59
2024-02-24T10:32:10.767Z,99951.47
2024-02-24T10:36:59.992Z,99989.91
2024-02-24T10:41:48.299Z,99988.69
2024-02-24T10:46:38.300Z,99971.94
2024-02-24T10:51:28.714Z,99984.84
2024-02-24T10:56:19.246Z,99997.63
2024-02-24T11:01:09.677Z,99929.94
2024-02-24T11:06:03.307Z,100000.78
2024-02-24T11:10:54.044Z,100017.66
2024-02-24T11:15:41.180Z,99974.59
2024-02-24T11:20:55.616Z,100019.53
2024-02-24T11:25:46.880Z,100036.09
2024-02-24T11:30:47.148Z,100018.34
2024-02-24T11:35:34.425Z,100024.88
2024-02-24T11:40:25.148Z,100041.81
2024-02-24T11:45:16.824Z,100049.50
2024-02-24T11:50:04.879Z,100028.28
2024-02-24T11:54:52.273Z,100061.38
2024-02-24T11:59:39.507Z,100049.66
2024-02-24T12:04:32.982Z,100060.84
2024-02-24T12:09:21.151Z,100003.59
2024-02-24T12:14:08.796Z,99978.06
2024-02-24T12:18:58.913Z,100006.56
2024-02-24T12:23:48.988Z,100064.72
2024-02-24T12:28:36.364Z,100069.69
2024-02-24T12:33:25.021Z,100038.47
2024-02-24T12:38:33.254Z,99965.00
2024-02-24T12:43:43.914Z,99931.34
2024-02-24T12:48:31.650Z,100048.34
2024-02-24T12:53:21.871Z,100086.19
2024-02-24T12:58:09.192Z,100077.91
2024-02-24T13:03:01.578Z,100012.66
2024-02-24T13:07:50.986Z,100029.69
2024-02-24T13:12:39.026Z,100021.81
2024-02-24T13:17:26.532Z,100070.19
2024-02-24T13:22:21.105Z,100086.50
2024-02-24T13:27:09.499Z,100056.34
2024-02-24T13:32:06.502Z,100069.66
2024-02-24T13:36:53.724Z,99996.34
2024-02-24T13:41:46.105Z,100061.81
2024-02-24T13:46:33.596Z,100014.53
2024-02-24T13:51:21.001Z,99984.00
2024-02-24T13:56:08.478Z,100020.72
2024-02-24T14:01:00.545Z,100096.72
2024-02-24T14:05:50.517Z,100043.28
2024-02-24T14:10:37.886Z,100110.53
2024-02-24T14:15:25.126Z,100077.34
2024-02-24T14:20:22.870Z,100116.53
2024-02-24T14:25:13.065Z,100131.78
2024-02-24T14:30:00.395Z,100101.31
2024-02-24T14:34:57.639Z,100125.81
2024-02-24T14:39:50.991Z,100101.53
2024-02-24T14:44:42.675Z,100090.66
2024-02-24T14:49:36.402Z,100046.25
2024-02-24T14:54:26.448Z,100024.44
2024-02-24T14:59:20.996Z,100100.13
2024-02-24T15:04:11.397Z,100122.50
2024-02-24T15:08:58.704Z,100145.19
2024-02-24T15:13:46.031Z,100111.22
2024-02-24T15:18:36.344Z,100039.66
2024-02-24T15:23:23.810Z,100086.09
2024-02-24T15:28:15.615Z,100114.22
2024-02-24T15:33:03.105Z,100103.66
2024-02-24T15:37:53.216Z,100053.28
2024-02-24T15:42:40.457Z,100144.47
2024-02-24T15:47:27.816Z,100036.47
2024-02-24T15:52:33.181Z,100187.63
2024-02-24T15:57:26.021Z,100159.38
2024-02-24T16:02:13.473Z,100131.47
2024-02-24T16:07:00.824Z,100078.81
2024-02-24T16:11:48.325Z,100165.88
2024-02-24T16:16:38.431Z,100160.66
2024-02-24T16:21:25.576Z,100052.63
2024-02-24T16:26:14.939Z,100135.28
2024-02-24T16:31:02.207Z,100171.72
2024-02-24T16:35:54.780Z,100155.53
2024-02-24T16:40:42.577Z,100177.88
2024-02-24T16:45:34.144Z,100154.50
2024-02-24T16:50:26.376Z,100084.44
2024-02-24T16:55:16.492Z,100155.00
2024-02-24T17:00:06.177Z,100185.06
2024-02-24T17:04:56.180Z,100157.09
2024-02-24T17:09:43.524Z,100054.19
2024-02-24T17:14:35.475Z,100033.94
2024-02-24T17:19:23.102Z,100133.47
2024-02-24T17:24:10.635Z,100098.53
2024-02-24T17:28:57.872Z,100101.94
2024-02-24T17:33:47.940Z,100161.19
2024-02-24T17:38:35.504Z,100183.38
2024-02-24T17:43:38.228Z,100187.44
2024-02-24T17:48:25.756Z,100198.75
2024-02-24T17:53:15.759Z,100176.78
2024-02-24T17:58:03.124Z,100218.63
2024-02-24T18:02:50.645Z,100060.75
2024-02-24T18:07:38.810Z,100150.94
2024-02-24T18:12:29.023Z,100225.31
2024-02-24T18:17:18.372Z,100185.28
2024-02-24T18:22:05.625Z,100165.94
2024-02-24T18:26:59.627Z,100097.88
2024-02-24T18:31:51.860Z,100180.81
2024-02-24T18:36:41.861Z,100127.88
2024-02-24T18:41:29.818Z,100204.06
2024-02-24T18:46:17.339Z,100213.94
2024-02-24T18:51:07.645Z,100179.97
2024-02-24T18:55:55.112Z,100134.13
2024-02-24T19:00:54.084Z,100224.47
2024-02-24T19:05:41.633Z,100188.50
2024-02-24T19:10:31.800Z,100154.59
2024-02-24T19:15:19.248Z,100222.41
2024-02-24T19:20:09.688Z,100212.78
2024-02-24T19:25:00.233Z,100147.88
2024-02-24T19:30:12.737Z,100217.75
2024-02-24T19:35:30.750Z,100122.19
2024-02-24T21:26:22.682Z,100158.84
2024-02-24T21:31:09.926Z,100161.50
2024-02-24T21:35:57.318Z,100137.50
2024-02-24T21:40:47.848Z,100090.13
2024-02-24T21:45:49.194Z,100190.50
2024-02-24T21:50:36.559Z,100183.38
2024-02-24T21:55:25.199Z,100160.81
2024-02-24T22:00:15.703Z,100125.28
2024-02-24T22:05:23.666Z,99966.78
2024-02-24T22:10:12.104Z,100163.00
2024-02-24T22:14:59.686Z,100042.78
2024-02-24T22:19:46.993Z,100152.09
2024-02-24T22:24:39.577Z,100130.03
2024-02-24T22:29:26.771Z,100101.69
2024-02-24T22:34:14.230Z,100142.53
2024-02-24T22:39:01.696Z,100022.38
2024-02-24T22:43:54.246Z,100113.63
2024-02-24T22:48:41.525Z,100106.50
2024-02-24T22:53:29.068Z,99998.13
2024-02-24T22:58:19.712Z,100109.34
2024-02-24T23:03:10.685Z,100021.41
2024-02-24T23:07:57.963Z,100080.41
2024-02-24T23:12:46.702Z,100053.91
2024-02-24T23:17:34.055Z,100105.25
2024-02-24T23:22:24.898Z,100049.63
2024-02-24T23:27:12.268Z,100011.84
2024-02-24T23:32:01.825Z,100006.16
2024-02-24T23:36:49.061Z,100076.81
2024-02-24T23:41:39.061Z,100122.13
2024-02-24T23:46:26.350Z,100034.59
2024-02-24T23:51:13.678Z,99979.66
2024-02-24T23:56:00.842Z,100045.38
